Time;durP1;ratioP1;P1;durP2;ratioP2;P2;SDS_P1;SDS_P2;PMS_P1;PMS_P2;Temp;Humidity;BMP_temperature;BMP_pressure;BME280_temperature;BME280_humidity;BME280_pressure;Samples;Min_cycle;Max_cycle;Signal;HPM_P1;HPM_P2
2021/05/30 00:00:26;;;;;;;20.30;15.02;;;;;;;15.48;100.00;102918.38;5073786;28;20079;-68
2021/05/30 00:02:52;;;;;;;21.40;15.65;;;;;;;15.41;100.00;102914.81;5073270;28;20544;-64
2021/05/30 00:05:18;;;;;;;18.00;14.40;;;;;;;15.38;100.00;102913.34;5073470;28;20028;-67
2021/05/30 00:07:45;;;;;;;15.75;13.45;;;;;;;15.36;100.00;102905.31;5073810;28;20032;-67
2021/05/30 00:10:11;;;;;;;15.05;13.00;;;;;;;15.35;100.00;102909.13;5072821;28;20381;-67
2021/05/30 00:12:38;;;;;;;16.00;12.98;;;;;;;15.36;100.00;102910.81;5073313;28;20044;-64
2021/05/30 00:15:06;;;;;;;15.27;12.80;;;;;;;15.39;100.00;102910.34;5073143;28;20501;-64
2021/05/30 00:17:32;;;;;;;20.67;13.82;;;;;;;15.43;100.00;102909.91;5073064;28;20040;-68
2021/05/30 00:19:58;;;;;;;16.27;13.05;;;;;;;15.45;100.00;102907.81;5073112;28;20058;-67
2021/05/30 00:22:23;;;;;;;16.92;13.75;;;;;;;15.47;100.00;102901.00;5073242;28;20040;-66
2021/05/30 00:24:49;;;;;;;16.25;13.57;;;;;;;15.48;100.00;102907.34;5072815;28;20032;-66
2021/05/30 00:27:15;;;;;;;19.02;13.45;;;;;;;15.50;100.00;102916.22;5073127;28;20040;-65
2021/05/30 00:29:41;;;;;;;17.88;13.70;;;;;;;15.47;100.00;102902.91;5073055;28;20451;-64
2021/05/30 00:32:07;;;;;;;20.00;16.77;;;;;;;15.44;100.00;102912.44;5072959;28;20127;-65
2021/05/30 00:34:32;;;;;;;18.92;16.48;;;;;;;15.41;100.00;102912.03;5072922;28;20442;-64
2021/05/30 00:36:58;;;;;;;19.75;17.65;;;;;;;15.37;100.00;102908.91;5072851;28;20041;-65
2021/05/30 00:39:24;;;;;;;19.13;17.02;;;;;;;15.31;100.00;102913.41;5072781;28;20036;-64
2021/05/30 00:41:49;;;;;;;21.73;17.95;;;;;;;15.27;100.00;102916.81;5072920;28;20159;-66
2021/05/30 00:44:33;;;;;;;21.05;18.48;;;;;;;15.22;100.00;102909.22;5072746;28;20044;-64
2021/05/30 00:46:59;;;;;;;25.38;17.90;;;;;;;15.18;100.00;102907.16;5072652;28;20460;-66
2021/05/30 00:49:27;;;;;;;21.75;18.13;;;;;;;15.12;100.00;102908.88;5072748;28;20120;-64
2021/05/30 00:51:53;;;;;;;21.33;18.88;;;;;;;15.06;100.00;102907.00;5072858;28;20056;-67
2021/05/30 00:54:18;;;;;;;21.30;18.05;;;;;;;15.02;100.00;102914.03;5072314;28;20036;-67
2021/05/30 00:56:44;;;;;;;22.38;17.85;;;;;;;14.98;100.00;102915.53;5072646;28;20521;-65
2021/05/30 00:59:12;;;;;;;24.45;18.60;;;;;;;14.95;100.00;102913.22;5071275;28;20044;-67
2021/05/30 01:01:38;;;;;;;24.15;18.10;;;;;;;14.91;100.00;102911.97;5072764;28;20035;-67
2021/05/30 01:04:05;;;;;;;19.85;17.13;;;;;;;14.87;100.00;102906.06;5072373;28;20032;-65
2021/05/30 01:06:31;;;;;;;20.60;17.88;;;;;;;14.81;100.00;102903.34;5070949;28;20311;-66
2021/05/30 01:08:59;;;;;;;21.65;18.30;;;;;;;14.77;100.00;102912.06;5072369;28;20029;-66
2021/05/30 01:11:25;;;;;;;23.88;17.73;;;;;;;14.73;100.00;102909.94;5072321;28;20036;-65
2021/05/30 01:13:56;;;;;;;20.95;16.92;;;;;;;14.69;100.00;102903.19;5072250;28;20044;-64
2021/05/30 01:16:27;;;;;;;23.85;17.23;;;;;;;14.66;100.00;102898.97;5103649;28;20131;-66
2021/05/30 01:18:57;;;;;;;22.08;16.45;;;;;;;14.64;100.00;102900.28;5072105;28;20036;-66
2021/05/30 01:21:24;;;;;;;20.98;16.33;;;;;;;14.62;100.00;102897.75;5072136;28;20036;-65
2021/05/30 01:23:56;;;;;;;18.23;15.68;;;;;;;14.61;100.00;102898.81;5070746;28;20033;-65
2021/05/30 01:26:22;;;;;;;20.20;15.80;;;;;;;14.63;100.00;102893.09;5072221;28;20398;-65
2021/05/30 01:28:49;;;;;;;19.08;17.13;;;;;;;14.62;100.00;102892.25;5071959;28;20033;-66
2021/05/30 01:31:16;;;;;;;19.42;16.15;;;;;;;14.62;100.00;102892.25;5071590;28;20083;-63
2021/05/30 01:33:41;;;;;;;20.45;16.60;;;;;;;14.61;100.00;102890.56;5071813;28;20570;-67
2021/05/30 01:36:07;;;;;;;20.63;16.52;;;;;;;14.61;100.00;102890.56;5071654;28;20048;-64
2021/05/30 01:38:33;;;;;;;21.80;16.55;;;;;;;14.63;100.00;102882.94;5071666;28;20036;-64
2021/05/30 01:40:59;;;;;;;18.42;15.68;;;;;;;14.62;100.00;102886.75;5071684;28;20474;-66
2021/05/30 01:43:26;;;;;;;20.23;16.67;;;;;;;14.63;100.00;102882.94;5071689;28;20467;-64
2021/05/30 01:45:51;;;;;;;19.77;16.70;;;;;;;14.63;100.00;102888.44;5071457;28;20032;-65
2021/05/30 01:48:17;;;;;;;20.67;16.52;;;;;;;14.63;100.00;102888.44;5071517;28;20441;-65
2021/05/30 01:50:49;;;;;;;21.50;17.13;;;;;;;14.64;100.00;102889.28;5071618;28;20047;-67
2021/05/30 01:53:16;;;;;;;20.88;18.15;;;;;;;14.61;100.00;102885.06;5071338;28;20033;-65
2021/05/30 01:58:23;;;;;;;21.48;17.42;;;;;;;14.53;100.00;102888.03;5071308;28;20043;-68
2021/05/30 02:00:49;;;;;;;19.40;16.60;;;;;;;14.49;100.00;102889.53;5071350;28;20032;-65
2021/05/30 02:03:16;;;;;;;24.88;17.65;;;;;;;14.41;100.00;102884.28;5071165;28;20032;-63
2021/05/30 02:05:46;;;;;;;19.92;17.08;;;;;;;14.34;100.00;102884.28;5071216;28;20513;-64
2021/05/30 02:08:13;;;;;;;21.60;18.00;;;;;;;14.32;100.00;102880.91;5071137;28;20032;-66
2021/05/30 02:10:39;;;;;;;18.92;17.02;;;;;;;14.31;100.00;102878.38;5071144;28;20028;-67
2021/05/30 02:13:06;;;;;;;23.95;16.90;;;;;;;14.29;100.00;102880.50;5071029;28;20055;-65
2021/05/30 02:15:33;;;;;;;22.55;16.42;;;;;;;14.25;100.00;102882.00;5070741;28;20040;-67
2021/05/30 02:18:00;;;;;;;19.65;17.23;;;;;;;14.23;100.00;102878.59;5071137;28;20037;-65
2021/05/30 02:20:35;;;;;;;21.88;16.92;;;;;;;14.22;100.00;102882.41;5071091;28;20044;-66
2021/05/30 02:23:01;;;;;;;23.95;19.35;;;;;;;14.22;100.00;102880.50;5070754;28;20052;-66
2021/05/30 02:25:28;;;;;;;22.17;18.23;;;;;;;14.24;100.00;102877.56;5070925;28;20036;-65
2021/05/30 02:27:54;;;;;;;23.52;17.55;;;;;;;14.26;100.00;102878.19;5069562;28;20033;-67
2021/05/30 02:30:21;;;;;;;22.48;16.88;;;;;;;14.28;100.00;102885.16;5070885;28;20471;-66
2021/05/30 02:32:48;;;;;;;22.40;18.35;;;;;;;14.29;100.00;102886.00;5070704;28;20423;-65
2021/05/30 02:35:14;;;;;;;21.20;18.05;;;;;;;14.29;100.00;102883.25;5070580;28;20479;-63
2021/05/30 02:37:39;;;;;;;21.10;17.45;;;;;;;14.25;100.00;102885.59;5070634;28;20094;-67
2021/05/30 02:40:06;;;;;;;21.92;17.50;;;;;;;14.22;100.00;102880.50;5071321;28;20530;-67
2021/05/30 02:42:33;;;;;;;23.73;18.30;;;;;;;14.18;100.00;102885.59;5070834;28;20040;-65
2021/05/30 02:44:59;;;;;;;21.08;17.65;;;;;;;14.12;100.00;102880.13;5070472;28;20386;-67
2021/05/30 02:47:25;;;;;;;24.17;18.05;;;;;;;14.14;100.00;102878.00;5070752;28;20082;-64
2021/05/30 02:49:51;;;;;;;20.90;18.08;;;;;;;14.11;100.00;102878.47;5070698;28;20433;-68
2021/05/30 02:52:17;;;;;;;20.70;17.38;;;;;;;14.10;100.00;102877.63;5070567;28;20128;-67
2021/05/30 02:54:42;;;;;;;24.70;18.13;;;;;;;14.11;100.00;102872.97;5070555;28;20059;-63
2021/05/30 02:57:08;;;;;;;22.63;17.27;;;;;;;14.13;100.00;102874.44;5069264;28;20131;-68
2021/05/30 02:59:34;;;;;;;18.58;13.60;;;;;;;14.17;100.00;102867.44;5070498;28;20048;-63
2021/05/30 03:02:00;;;;;;;17.60;11.32;;;;;;;14.23;100.00;102864.88;5070590;28;20036;-65
2021/05/30 03:04:26;;;;;;;19.38;12.98;;;;;;;14.30;100.00;102865.69;5070500;28;20064;-67
2021/05/30 03:06:52;;;;;;;13.48;11.52;;;;;;;14.39;100.00;102864.38;5070894;28;20113;-65
2021/05/30 03:09:18;;;;;;;16.63;11.85;;;;;;;14.48;100.00;102868.63;5070502;28;20075;-67
2021/05/30 03:11:43;;;;;;;15.13;11.02;;;;;;;14.54;100.00;102859.47;5070663;28;20043;-67
2021/05/30 03:14:09;;;;;;;17.05;11.40;;;;;;;14.63;100.00;102854.56;5070188;28;20044;-66
2021/05/30 03:16:34;;;;;;;15.38;11.38;;;;;;;14.70;100.00;102852.63;5070362;28;20036;-68
2021/05/30 03:19:00;;;;;;;16.45;10.45;;;;;;;14.74;100.00;102849.19;5070629;28;20548;-66
2021/05/30 03:21:26;;;;;;;17.20;11.98;;;;;;;14.80;100.00;102849.41;5070235;28;20040;-65
2021/05/30 03:23:52;;;;;;;14.70;10.93;;;;;;;14.84;100.00;102842.38;5070292;28;20057;-67
2021/05/30 03:26:17;;;;;;;16.52;11.50;;;;;;;14.88;100.00;102841.72;5070372;28;20132;-67
2021/05/30 03:28:43;;;;;;;14.30;11.55;;;;;;;14.91;100.00;102845.91;5070335;28;20529;-65
2021/05/30 03:31:11;;;;;;;15.98;11.48;;;;;;;14.93;100.00;102838.31;5070139;28;20091;-66
2021/05/30 03:33:37;;;;;;;15.25;11.18;;;;;;;14.95;100.00;102837.03;5070203;28;20071;-65
2021/05/30 03:36:06;;;;;;;15.57;11.45;;;;;;;14.97;100.00;102834.03;5070059;28;20076;-67
2021/05/30 03:38:33;;;;;;;16.63;12.10;;;;;;;15.00;100.00;102833.59;5070153;28;20119;-64
2021/05/30 03:43:29;;;;;;;17.67;13.32;;;;;;;15.01;100.00;102843.53;5069887;28;20435;-64
2021/05/30 03:45:56;;;;;;;14.93;12.07;;;;;;;15.04;100.00;102840.31;5071104;28;20478;-66
2021/05/30 03:48:23;;;;;;;15.70;12.85;;;;;;;15.03;100.00;102828.47;5073971;28;20540;-69
2021/05/30 03:50:50;;;;;;;14.70;12.65;;;;;;;15.04;100.00;102832.06;5073655;28;20103;-67
2021/05/30 03:53:22;;;;;;;20.95;12.70;;;;;;;15.03;100.00;102830.38;5073549;28;20094;-63
2021/05/30 03:55:50;;;;;;;18.27;12.73;;;;;;;15.03;100.00;102830.38;5073629;28;20045;-64
2021/05/30 03:58:17;;;;;;;16.52;12.90;;;;;;;15.01;100.00;102824.25;5073528;28;20411;-65
2021/05/30 04:00:43;;;;;;;20.80;12.80;;;;;;;14.99;100.00;102845.66;5073617;28;20483;-66
2021/05/30 04:03:10;;;;;;;17.67;13.70;;;;;;;14.97;100.00;102839.53;5073579;28;20036;-67
2021/05/30 04:05:36;;;;;;;17.27;12.13;;;;;;;14.96;100.00;102843.38;5073365;28;20028;-66
2021/05/30 04:08:03;;;;;;;14.02;12.40;;;;;;;14.94;100.00;102840.84;5073361;28;20033;-64
2021/05/30 04:10:29;;;;;;;17.52;12.25;;;;;;;14.92;100.00;102844.84;5073395;28;20032;-65
2021/05/30 04:12:57;;;;;;;18.17;11.52;;;;;;;14.90;100.00;102838.72;5073019;28;20059;-66
2021/05/30 04:15:23;;;;;;;19.30;12.40;;;;;;;14.88;100.00;102838.13;5073226;28;20080;-64
2021/05/30 04:17:49;;;;;;;14.57;11.90;;;;;;;14.85;100.00;102841.31;5073154;28;20090;-64
2021/05/30 04:20:17;;;;;;;18.27;12.25;;;;;;;14.83;100.00;102851.69;5072982;28;20060;-63
2021/05/30 04:22:44;;;;;;;17.50;12.77;;;;;;;14.82;100.00;102848.09;5055428;28;20037;-63
2021/05/30 04:25:11;;;;;;;16.30;11.77;;;;;;;14.78;100.00;102844.13;5072994;28;20056;-64
2021/05/30 04:27:37;;;;;;;14.38;11.38;;;;;;;14.76;100.00;102844.34;5071622;28;20437;-66
2021/05/30 04:30:05;;;;;;;16.10;11.70;;;;;;;14.75;100.00;102844.53;5072887;28;20059;-63
2021/05/30 04:32:31;;;;;;;15.98;11.50;;;;;;;14.74;100.00;102849.19;5073001;28;20040;-66
2021/05/30 04:34:56;;;;;;;15.02;11.25;;;;;;;14.72;100.00;102845.81;5072624;28;20036;-63
2021/05/30 04:37:22;;;;;;;14.93;12.20;;;;;;;14.69;100.00;102848.19;5072940;28;20032;-65
2021/05/30 04:39:47;;;;;;;14.07;10.52;;;;;;;14.70;100.00;102853.47;5073061;28;20058;-65
2021/05/30 04:42:13;;;;;;;15.77;11.25;;;;;;;14.70;100.00;102850.72;5072722;28;20093;-66
2021/05/30 04:44:39;;;;;;;15.73;11.65;;;;;;;14.71;100.00;102852.41;5071483;28;20032;-66
2021/05/30 04:47:05;;;;;;;14.70;11.23;;;;;;;14.70;100.00;102856.22;5072720;28;20437;-68
2021/05/30 04:49:30;;;;;;;14.93;11.70;;;;;;;14.69;100.00;102848.19;5072954;28;20033;-66
2021/05/30 04:51:56;;;;;;;13.45;10.05;;;;;;;14.69;100.00;102849.03;5072713;28;20405;-64
2021/05/30 04:54:22;;;;;;;15.82;10.48;;;;;;;14.67;100.00;102848.41;5072618;28;20502;-66
2021/05/30 04:56:48;;;;;;;20.08;11.35;;;;;;;14.66;100.00;102849.47;5072313;28;20050;-67
2021/05/30 04:59:13;;;;;;;14.30;10.07;;;;;;;14.63;100.00;102855.41;5072482;28;20104;-63
2021/05/30 05:01:39;;;;;;;15.90;11.60;;;;;;;14.62;100.00;102853.75;5072611;28;20059;-64
2021/05/30 05:04:05;;;;;;;13.07;11.30;;;;;;;14.62;100.00;102858.41;5072282;28;20761;-64
2021/05/30 05:06:31;;;;;;;14.13;10.27;;;;;;;14.60;100.00;102855.88;5072631;28;20032;-64
2021/05/30 05:08:56;;;;;;;13.60;9.85;;;;;;;14.59;100.00;102856.09;5072439;28;20043;-67
2021/05/30 05:11:22;;;;;;;13.35;9.60;;;;;;;14.57;100.00;102845.28;5072181;28;20050;-64
2021/05/30 05:13:47;;;;;;;14.77;8.93;;;;;;;14.59;100.00;102847.84;5072284;28;20044;-65
2021/05/30 05:16:14;;;;;;;9.77;8.48;;;;;;;14.59;100.00;102854.19;5072039;28;20457;-66
2021/05/30 05:18:39;;;;;;;10.20;8.15;;;;;;;14.61;100.00;102857.56;5072273;28;20033;-67
2021/05/30 05:21:06;;;;;;;9.77;7.95;;;;;;;14.62;100.00;102853.75;5072222;28;20063;-64
2021/05/30 05:23:32;;;;;;;13.07;8.88;;;;;;;14.61;100.00;102846.53;5071993;28;20082;-67
2021/05/30 05:26:03;;;;;;;10.48;7.63;;;;;;;14.63;100.00;102843.56;5072119;28;20509;-64
2021/05/30 05:28:30;;;;;;;11.63;7.40;;;;;;;14.62;100.00;102842.72;5071910;28;20116;-67
2021/05/30 05:30:56;;;;;;;10.52;8.00;;;;;;;14.64;100.00;102846.09;5071911;28;20076;-63
2021/05/30 05:33:22;;;;;;;9.10;6.93;;;;;;;14.65;100.00;102855.19;5071961;28;20040;-66
2021/05/30 05:35:48;;;;;;;7.95;6.60;;;;;;;14.65;100.00;102841.44;5071638;28;20036;-66
2021/05/30 05:38:14;;;;;;;8.63;6.75;;;;;;;14.66;100.00;102843.97;5071798;28;20032;-66
2021/05/30 05:40:40;;;;;;;7.38;6.68;;;;;;;14.66;100.00;102837.63;5071748;28;20041;-64
2021/05/30 05:43:07;;;;;;;6.43;5.78;;;;;;;14.68;100.00;102835.50;5071565;28;20090;-67
2021/05/30 05:45:35;;;;;;;10.18;6.90;;;;;;;14.72;100.00;102843.06;5072032;28;20121;-65
2021/05/30 05:48:02;;;;;;;7.05;6.30;;;;;;;14.75;100.00;102848.16;5071837;28;20040;-68
2021/05/30 05:50:28;;;;;;;8.02;5.90;;;;;;;14.78;100.00;102833.97;5071534;28;20063;-65
2021/05/30 05:52:54;;;;;;;6.57;5.97;;;;;;;14.81;100.00;102845.59;5071395;28;20037;-64
2021/05/30 05:55:22;;;;;;;6.47;5.88;;;;;;;14.83;100.00;102838.78;5071469;28;20074;-63
2021/05/30 05:57:50;;;;;;;6.95;4.95;;;;;;;14.89;100.00;102845.31;5071173;28;20071;-67
2021/05/30 06:00:24;;;;;;;8.80;4.85;;;;;;;14.94;100.00;102840.00;5071395;28;20032;-65
2021/05/30 06:02:51;;;;;;;5.57;5.00;;;;;;;14.97;100.00;102836.78;5071223;28;20064;-66
2021/05/30 06:05:21;;;;;;;5.97;5.07;;;;;;;15.03;100.00;102841.41;5071124;28;20029;-66
2021/05/30 06:07:48;;;;;;;5.95;5.40;;;;;;;15.08;100.00;102845.16;5071330;28;20474;-63
2021/05/30 06:10:15;;;;;;;6.53;5.13;;;;;;;15.13;100.00;102833.50;5070690;28;20062;-65
2021/05/30 06:12:41;;;;;;;7.75;5.45;;;;;;;15.18;100.00;102833.66;5070978;28;20130;-64
2021/05/30 06:15:08;;;;;;;6.75;5.97;;;;;;;15.22;100.00;102832.13;5071028;28;20131;-64
2021/05/30 06:17:34;;;;;;;7.72;5.40;;;;;;;15.28;100.00;102820.25;5071172;28;20449;-65
2021/05/30 06:20:04;;;;;;;6.05;4.95;;;;;;;15.34;100.00;102819.31;5102589;28;20057;-65
2021/05/30 06:22:31;;;;;;;5.00;4.60;;;;;;;15.38;100.00;102825.22;5071047;28;20528;-64
2021/05/30 06:24:57;;;;;;;5.45;4.85;;;;;;;15.42;100.00;102822.84;5071212;28;20119;-63
2021/05/30 06:27:23;;;;;;;6.70;4.57;;;;;;;15.49;100.00;102826.41;5070700;28;20044;-63
2021/05/30 06:29:48;;;;;;;4.85;4.45;;;;;;;15.53;100.00;102822.13;5070918;28;20056;-65
2021/05/30 06:32:14;;;;;;;4.47;3.90;;;;;;;15.58;100.00;102819.50;5070988;28;20086;-67
2021/05/30 06:34:40;;;;;;;4.60;4.10;;;;;;;15.64;100.00;102813.16;5070578;28;20056;-69
2021/05/30 06:37:06;;;;;;;3.90;3.53;;;;;;;15.71;100.00;102819.41;5070843;28;20060;-65
2021/05/30 06:39:33;;;;;;;4.75;3.92;;;;;;;15.75;100.00;102815.13;5070751;28;20036;-66
2021/05/30 06:41:59;;;;;;;4.18;3.53;;;;;;;15.83;100.00;102816.75;5070815;28;20082;-65
2021/05/30 06:44:25;;;;;;;4.90;3.65;;;;;;;15.88;100.00;102803.97;5070633;28;20036;-67
2021/05/30 06:46:50;;;;;;;4.97;4.20;;;;;;;15.93;100.00;102806.84;5070605;28;20078;-64
2021/05/30 06:49:16;;;;;;;5.53;3.92;;;;;;;16.00;100.00;102805.97;5069339;28;20037;-64
2021/05/30 06:51:43;;;;;;;4.97;3.60;;;;;;;16.06;100.00;102799.50;5070738;28;20057;-64
2021/05/30 06:54:09;;;;;;;4.00;3.70;;;;;;;16.12;100.00;102809.59;5070582;28;20059;-64
2021/05/30 06:56:35;;;;;;;3.85;3.47;;;;;;;16.17;100.00;102812.53;5070335;28;20052;-66
2021/05/30 06:59:02;;;;;;;3.25;2.92;;;;;;;16.22;100.00;102799.72;5070631;28;20036;-67
2021/05/30 07:01:28;;;;;;;4.30;3.20;;;;;;;16.29;100.00;102791.34;5070647;28;20079;-65
2021/05/30 07:03:54;;;;;;;4.38;3.30;;;;;;;16.37;100.00;102802.06;5070221;28;20063;-64
2021/05/30 07:06:22;;;;;;;5.20;3.13;;;;;;;16.46;100.00;102799.81;5070544;28;20501;-65
2021/05/30 07:08:49;;;;;;;3.05;2.75;;;;;;;16.52;100.00;102794.22;5070420;28;20482;-64
2021/05/30 07:11:14;;;;;;;3.08;2.60;;;;;;;16.62;100.00;102787.28;5070395;28;20064;-65
2021/05/30 07:13:40;;;;;;;5.30;3.28;;;;;;;16.70;100.00;102795.28;5070350;28;20056;-64
2021/05/30 07:16:06;;;;;;;3.80;2.67;;;;;;;16.80;100.00;102792.75;5070339;28;20037;-67
2021/05/30 07:18:31;;;;;;;3.88;3.20;;;;;;;16.87;100.00;102788.84;5070347;28;20509;-67
2021/05/30 07:20:58;;;;;;;4.13;2.67;;;;;;;16.91;100.00;102786.44;5071419;28;20040;-65
2021/05/30 07:23:24;;;;;;;3.75;2.70;;;;;;;16.98;100.00;102781.63;5074300;28;20055;-66
2021/05/30 07:25:52;;;;;;;4.53;2.50;;;;;;;17.06;100.00;102786.81;5074113;28;20455;-64
2021/05/30 07:28:19;;;;;;;2.83;2.22;;;;;;;17.15;100.00;102793.66;5074208;28;20086;-64
2021/05/30 07:30:45;;;;;;;2.97;2.55;;;;;;;17.24;100.00;102785.03;5074046;28;20048;-67
2021/05/30 07:33:12;;;;;;;2.95;2.42;;;;;;;17.32;100.00;102782.75;5074014;28;20032;-64
2021/05/30 07:35:39;;;;;;;1.90;1.80;;;;;;;17.41;100.00;102788.75;5074084;28;20032;-68
2021/05/30 07:38:05;;;;;;;2.17;1.98;;;;;;;17.49;100.00;102788.38;5073838;28;20032;-65
2021/05/30 07:40:32;;;;;;;4.10;2.42;;;;;;;17.57;100.00;102790.81;5073767;28;20036;-64
2021/05/30 07:42:59;;;;;;;7.13;2.55;;;;;;;17.65;100.00;102790.41;5073812;28;20067;-67
2021/05/30 07:45:25;;;;;;;2.67;2.28;;;;;;;17.70;98.67;102789.72;5073894;28;20483;-66
2021/05/30 07:47:51;;;;;;;4.47;2.05;;;;;;;17.75;96.09;102787.91;5073678;28;20061;-68
2021/05/30 07:50:18;;;;;;;4.10;2.47;;;;;;;17.76;95.96;102788.75;5073867;28;20040;-66
2021/05/30 07:52:45;;;;;;;4.55;2.03;;;;;;;17.77;95.58;102791.28;5073809;28;20028;-64
2021/05/30 07:55:12;;;;;;;2.40;1.85;;;;;;;17.81;91.29;102793.56;5073477;28;20444;-63
2021/05/30 07:57:38;;;;;;;4.55;2.22;;;;;;;17.85;91.98;102783.69;5073471;28;20047;-67
2021/05/30 08:00:08;;;;;;;2.60;2.00;;;;;;;17.89;92.10;102782.13;5073730;28;20036;-66
2021/05/30 08:02:35;;;;;;;2.70;2.15;;;;;;;17.90;93.17;102783.81;5073481;28;20062;-67
2021/05/30 08:05:01;;;;;;;2.33;2.13;;;;;;;17.98;93.20;102786.19;5073377;28;20441;-65
2021/05/30 08:07:27;;;;;;;2.33;2.00;;;;;;;18.03;91.55;102775.22;5073281;28;20037;-64
2021/05/30 08:09:53;;;;;;;2.78;2.42;;;;;;;18.12;92.54;102784.81;5073326;28;20372;-68
2021/05/30 08:12:18;;;;;;;2.47;2.28;;;;;;;18.20;93.00;102776.13;5073401;28;20479;-64
2021/05/30 08:14:44;;;;;;;2.35;1.85;;;;;;;18.26;90.35;102766.03;5073110;28;20036;-66
2021/05/30 08:17:10;;;;;;;2.67;2.00;;;;;;;18.35;87.56;102765.34;5073313;28;20070;-65
2021/05/30 08:19:36;;;;;;;1.92;1.80;;;;;;;18.38;83.96;102764.84;5073281;28;20039;-64
2021/05/30 08:22:02;;;;;;;2.08;1.73;;;;;;;18.48;84.94;102760.63;5073110;28;20032;-66
2021/05/30 08:24:28;;;;;;;3.92;1.67;;;;;;;18.54;82.14;102763.22;5072885;28;20114;-66
2021/05/30 08:26:55;;;;;;;2.03;1.30;;;;;;;18.64;80.08;102751.53;5073092;28;20090;-64
2021/05/30 08:29:22;;;;;;;1.50;1.40;;;;;;;18.72;76.14;102748.34;5072824;28;20039;-67
2021/05/30 08:31:49;;;;;;;2.03;1.27;;;;;;;18.75;69.73;102753.41;5071030;28;20472;-66
2021/05/30 08:34:16;;;;;;;2.50;1.83;;;;;;;18.72;71.66;102764.94;5071328;28;20169;-65
2021/05/30 08:36:42;;;;;;;1.45;1.35;;;;;;;18.72;74.23;102753.88;5072886;28;20052;-67
2021/05/30 08:39:08;;;;;;;1.65;1.40;;;;;;;18.72;75.57;102758.56;5072679;28;20155;-69
2021/05/30 08:41:34;;;;;;;1.52;1.30;;;;;;;18.70;75.82;102745.00;5072567;28;20040;-68
2021/05/30 08:44:00;;;;;;;1.70;1.60;;;;;;;18.49;71.02;102765.06;5072594;28;20044;-65
2021/05/30 08:46:30;;;;;;;2.10;1.90;;;;;;;18.28;72.31;102759.16;5073042;28;20036;-64
2021/05/30 08:48:57;;;;;;;2.42;1.75;;;;;;;18.07;74.76;102773.66;5072556;28;20033;-64
2021/05/30 08:51:22;;;;;;;2.85;1.80;;;;;;;17.90;78.99;102767.22;5072753;28;20067;-66
2021/05/30 08:53:48;;;;;;;2.75;1.95;;;;;;;17.76;84.20;102773.00;5072346;28;20066;-65
2021/05/30 08:56:16;;;;;;;3.50;2.70;;;;;;;17.66;85.94;102767.22;5072402;28;20043;-63
2021/05/30 08:58:47;;;;;;;3.72;1.75;;;;;;;17.56;84.00;102767.00;5072365;28;20070;-63
2021/05/30 09:01:21;;;;;;;2.42;1.73;;;;;;;17.55;85.86;102762.56;5072335;28;20044;-70
2021/05/30 09:03:55;;;;;;;1.80;1.70;;;;;;;17.68;83.97;102762.31;5072134;28;20047;-67
2021/05/30 09:06:22;;;;;;;7.00;1.90;;;;;;;17.97;78.98;102762.38;5072315;28;20052;-68
2021/05/30 09:08:54;;;;;;;2.15;1.70;;;;;;;18.11;77.31;102762.94;5072049;28;20028;-68
2021/05/30 09:11:49;;;;;;;1.63;1.50;;;;;;;18.10;74.03;102762.09;5072270;28;20051;-65
2021/05/30 09:14:19;;;;;;;2.30;1.20;;;;;;;18.07;74.09;102757.06;5072153;28;20032;-67
2021/05/30 09:16:53;;;;;;;2.50;1.40;;;;;;;17.98;73.17;102753.84;5072099;28;20032;-65
2021/05/30 09:19:55;;;;;;;3.75;1.20;;;;;;;17.93;76.15;102766.72;5072257;28;20390;-64
2021/05/30 09:22:31;;;;;;;2.25;1.80;;;;;;;17.81;72.98;102760.38;5029744;28;20083;-65
2021/05/30 09:25:12;;;;;;;2.13;1.40;;;;;;;17.96;72.97;102766.22;5038551;28;20119;-68
2021/05/30 09:27:48;;;;;;;2.15;1.50;;;;;;;18.23;68.76;102749.91;5071716;28;20475;-66
2021/05/30 09:30:42;;;;;;;5.65;1.27;;;;;;;18.60;72.11;102750.31;5071748;28;20391;-67
2021/05/30 09:33:22;;;;;;;1.98;1.10;;;;;;;18.95;68.39;102745.44;5071558;28;20489;-66
2021/05/30 09:36:00;;;;;;;2.33;1.20;;;;;;;18.92;62.75;102745.94;5071660;28;20440;-66
2021/05/30 09:38:32;;;;;;;1.70;1.60;;;;;;;18.78;65.99;102750.13;5071574;28;20125;-65
2021/05/30 09:41:02;;;;;;;3.55;2.10;;;;;;;18.67;69.75;102753.78;5071804;28;20098;-66
2021/05/30 09:43:35;;;;;;;2.00;1.38;;;;;;;18.48;63.41;102746.78;5070870;28;20613;-63
2021/05/30 09:46:06;;;;;;;2.15;1.20;;;;;;;18.48;59.03;102755.09;5071425;28;20075;-65
2021/05/30 09:48:33;;;;;;;2.92;2.20;;;;;;;18.74;61.02;102751.69;5071555;28;20032;-69
2021/05/30 09:51:18;;;;;;;2.53;2.00;;;;;;;18.88;61.91;102747.50;5071506;28;20079;-65
2021/05/30 09:53:44;;;;;;;1.60;1.42;;;;;;;19.14;59.20;102753.47;5071291;28;20047;-66
2021/05/30 09:56:38;;;;;;;1.20;1.10;;;;;;;19.42;57.00;102747.78;5071564;28;20040;-66
2021/05/30 09:59:15;;;;;;;2.90;1.47;;;;;;;19.62;58.19;102757.53;5071396;28;20463;-67
2021/05/30 10:01:58;;;;;;;1.48;1.08;;;;;;;19.80;54.92;102754.47;5071083;28;20036;-68
2021/05/30 10:04:26;;;;;;;1.58;1.05;;;;;;;19.93;56.13;102758.75;5071218;28;20129;-68
2021/05/30 10:06:55;;;;;;;1.27;1.10;;;;;;;19.93;54.37;102753.22;5071136;28;20032;-67
2021/05/30 10:09:21;;;;;;;1.83;1.10;;;;;;;20.00;54.14;102751.94;5069479;28;20036;-64
2021/05/30 10:11:47;;;;;;;1.50;1.10;;;;;;;20.10;50.67;102749.25;5071039;28;20505;-68
2021/05/30 10:14:13;;;;;;;4.40;1.25;;;;;;;20.00;50.20;102746.38;5070701;28;20044;-65
2021/05/30 10:16:39;;;;;;;1.88;1.08;;;;;;;19.92;50.10;102755.13;5069153;28;20406;-62
2021/05/30 10:19:10;;;;;;;1.73;0.88;;;;;;;19.98;49.28;102756.91;5070674;28;20040;-64
2021/05/30 10:21:43;;;;;;;2.92;1.05;;;;;;;20.24;48.92;102751.63;5070895;28;20089;-66
2021/05/30 10:24:10;;;;;;;1.33;0.90;;;;;;;20.44;51.04;102751.88;5070559;28;20048;-67
2021/05/30 10:26:37;;;;;;;3.65;1.67;;;;;;;20.54;50.54;102743.66;5069757;28;20376;-63
2021/05/30 10:29:19;;;;;;;1.48;0.80;;;;;;;20.67;50.97;102746.00;5071219;28;20040;-65
2021/05/30 10:31:46;;;;;;;1.30;1.15;;;;;;;20.69;52.85;102751.31;5070391;28;20506;-68
2021/05/30 10:34:14;;;;;;;1.50;1.05;;;;;;;20.85;51.90;102755.06;5070765;28;20447;-65
2021/05/30 10:36:44;;;;;;;1.95;1.13;;;;;;;20.93;48.10;102749.00;5070544;28;20066;-65
2021/05/30 10:39:30;;;;;;;1.90;1.23;;;;;;;20.98;48.17;102743.47;5070474;28;20086;-64
2021/05/30 10:42:17;;;;;;;1.27;1.17;;;;;;;21.02;49.10;102739.06;5070399;28;20814;-67
2021/05/30 10:44:56;;;;;;;1.27;1.17;;;;;;;21.07;51.39;102747.44;5070197;28;20051;-67
2021/05/30 10:47:52;;;;;;;1.85;1.35;;;;;;;21.22;51.35;102744.78;5070159;28;20044;-65
2021/05/30 10:50:21;;;;;;;3.03;1.00;;;;;;;21.17;44.65;102741.94;5070018;28;20167;-66
2021/05/30 10:52:48;;;;;;;1.77;1.00;;;;;;;21.34;47.22;102742.63;5069920;28;20475;-64
2021/05/30 10:55:19;;;;;;;1.00;0.90;;;;;;;21.31;47.17;102737.63;5068456;28;20067;-67
2021/05/30 10:57:49;;;;;;;0.80;0.80;;;;;;;21.41;45.08;102736.84;5070240;28;20028;-67
2021/05/30 11:00:20;;;;;;;0.80;0.77;;;;;;;21.27;44.32;102739.28;5069896;28;20035;-64
2021/05/30 11:03:02;;;;;;;1.85;1.00;;;;;;;21.35;44.92;102735.16;5070385;28;20038;-65
2021/05/30 11:05:48;;;;;;;3.63;0.93;;;;;;;21.41;46.27;102739.63;5068402;28;20040;-68
2021/05/30 11:08:28;;;;;;;4.47;1.08;;;;;;;21.51;46.82;102736.06;5069706;28;20526;-66
2021/05/30 11:11:24;;;;;;;1.88;0.98;;;;;;;21.56;43.34;102738.88;5069767;28;20036;-66
2021/05/30 11:13:55;;;;;;;1.42;0.88;;;;;;;21.59;42.99;102735.56;5070102;28;20517;-67
2021/05/30 11:16:33;;;;;;;0.77;0.77;;;;;;;21.66;42.72;102727.81;5069968;28;20467;-66
2021/05/30 11:19:10;;;;;;;1.48;0.90;;;;;;;21.54;41.98;102738.34;5070014;28;20082;-64
2021/05/30 11:21:40;;;;;;;1.13;0.90;;;;;;;21.64;42.57;102733.63;5068638;28;20458;-67